sensor_id;sensor_type;location;lat;lon;timestamp;temperature;humidity
5617;DHT22;2830;50.656;7.568;2023-12-22T00:00:13;5.10;99.90
5617;DHT22;2830;50.656;7.568;2023-12-22T00:02:39;5.10;99.90
5617;DHT22;2830;50.656;7.568;2023-12-22T00:05:07;5.00;99.90
5617;DHT22;2830;50.656;7.568;2023-12-22T00:07:33;5.00;99.90
5617;DHT22;2830;50.656;7.568;2023-12-22T00:10:00;5.00;99.90
5617;DHT22;2830;50.656;7.568;2023-12-22T00:12:27;5.10;99.90
5617;DHT22;2830;50.656;7.568;2023-12-22T00:14:55;5.10;99.90
5617;DHT22;2830;50.656;7.568;2023-12-22T00:17:22;5.10;99.90
5617;DHT22;2830;50.656;7.568;2023-12-22T00:19:48;5.10;99.90
5617;DHT22;2830;50.656;7.568;2023-12-22T00:22:15;5.00;99.90
5617;DHT22;2830;50.656;7.568;2023-12-22T00:24:42;5.00;99.90
5617;DHT22;2830;50.656;7.568;2023-12-22T00:27:09;4.70;99.90
5617;DHT22;2830;50.656;7.568;2023-12-22T00:29:36;3.90;99.90
5617;DHT22;2830;50.656;7.568;2023-12-22T00:32:04;3.30;99.90
5617;DHT22;2830;50.656;7.568;2023-12-22T00:34:31;3.10;99.90
5617;DHT22;2830;50.656;7.568;2023-12-22T00:36:58;3.00;99.90
5617;DHT22;2830;50.656;7.568;2023-12-22T00:39:26;3.00;99.90
5617;DHT22;2830;50.656;7.568;2023-12-22T00:41:53;2.90;99.90
5617;DHT22;2830;50.656;7.568;2023-12-22T00:44:20;3.00;99.90
5617;DHT22;2830;50.656;7.568;2023-12-22T00:46:46;3.00;99.90
5617;DHT22;2830;50.656;7.568;2023-12-22T00:49:13;3.00;99.90
5617;DHT22;2830;50.656;7.568;2023-12-22T00:51:40;3.00;99.90
5617;DHT22;2830;50.656;7.568;2023-12-22T00:54:07;3.00;99.90
5617;DHT22;2830;50.656;7.568;2023-12-22T00:56:34;2.90;99.90
5617;DHT22;2830;50.656;7.568;2023-12-22T00:59:01;3.00;99.90
5617;DHT22;2830;50.656;7.568;2023-12-22T01:01:37;3.00;99.90
5617;DHT22;2830;50.656;7.568;2023-12-22T01:04:04;3.00;99.90
5617;DHT22;2830;50.656;7.568;2023-12-22T01:06:31;3.10;99.90
5617;DHT22;2830;50.656;7.568;2023-12-22T01:09:01;3.20;99.90
5617;DHT22;2830;50.656;7.568;2023-12-22T01:11:28;3.40;99.90
5617;DHT22;2830;50.656;7.568;2023-12-22T01:13:55;3.50;99.90
5617;DHT22;2830;50.656;7.568;2023-12-22T01:16:22;3.60;99.90
5617;DHT22;2830;50.656;7.568;2023-12-22T01:18:50;3.70;99.90
5617;DHT22;2830;50.656;7.568;2023-12-22T01:21:17;3.70;99.90
5617;DHT22;2830;50.656;7.568;2023-12-22T01:23:44;3.70;99.90
5617;DHT22;2830;50.656;7.568;2023-12-22T01:26:11;3.70;99.90
5617;DHT22;2830;50.656;7.568;2023-12-22T01:28:38;3.70;99.90
5617;DHT22;2830;50.656;7.568;2023-12-22T01:31:05;3.80;99.90
5617;DHT22;2830;50.656;7.568;2023-12-22T01:33:32;3.80;99.90
5617;DHT22;2830;50.656;7.568;2023-12-22T01:35:59;3.80;99.90
5617;DHT22;2830;50.656;7.568;2023-12-22T01:38:26;3.80;99.90
5617;DHT22;2830;50.656;7.568;2023-12-22T01:40:53;3.80;99.90
5617;DHT22;2830;50.656;7.568;2023-12-22T01:43:20;3.90;99.90
5617;DHT22;2830;50.656;7.568;2023-12-22T01:45:50;3.90;99.90
5617;DHT22;2830;50.656;7.568;2023-12-22T01:48:19;3.90;99.90
5617;DHT22;2830;50.656;7.568;2023-12-22T01:50:46;4.00;99.90
5617;DHT22;2830;50.656;7.568;2023-12-22T01:53:13;4.00;99.90
5617;DHT22;2830;50.656;7.568;2023-12-22T01:55:40;4.00;99.90
5617;DHT22;2830;50.656;7.568;2023-12-22T01:58:07;4.00;99.90
5617;DHT22;2830;50.656;7.568;2023-12-22T02:00:34;4.00;99.90
5617;DHT22;2830;50.656;7.568;2023-12-22T02:03:02;4.00;99.90
5617;DHT22;2830;50.656;7.568;2023-12-22T02:05:29;4.00;99.90
5617;DHT22;2830;50.656;7.568;2023-12-22T02:07:56;4.00;99.90
5617;DHT22;2830;50.656;7.568;2023-12-22T02:10:24;4.00;99.90
5617;DHT22;2830;50.656;7.568;2023-12-22T02:12:51;4.10;99.90
5617;DHT22;2830;50.656;7.568;2023-12-22T02:15:17;4.00;99.90
5617;DHT22;2830;50.656;7.568;2023-12-22T02:18:06;4.10;99.90
5617;DHT22;2830;50.656;7.568;2023-12-22T02:20:33;4.10;99.90
5617;DHT22;2830;50.656;7.568;2023-12-22T02:23:01;4.20;99.90
5617;DHT22;2830;50.656;7.568;2023-12-22T02:25:28;4.20;99.90
5617;DHT22;2830;50.656;7.568;2023-12-22T02:28:02;4.20;99.90
5617;DHT22;2830;50.656;7.568;2023-12-22T02:30:43;4.20;99.90
5617;DHT22;2830;50.656;7.568;2023-12-22T02:33:15;4.20;99.90
5617;DHT22;2830;50.656;7.568;2023-12-22T02:35:42;4.20;99.90
5617;DHT22;2830;50.656;7.568;2023-12-22T02:38:12;4.20;99.90
5617;DHT22;2830;50.656;7.568;2023-12-22T02:40:39;4.10;99.90
5617;DHT22;2830;50.656;7.568;2023-12-22T02:43:07;4.10;99.90
5617;DHT22;2830;50.656;7.568;2023-12-22T02:45:34;4.00;99.90
5617;DHT22;2830;50.656;7.568;2023-12-22T02:48:01;4.00;99.90
5617;DHT22;2830;50.656;7.568;2023-12-22T02:50:28;4.00;99.90
5617;DHT22;2830;50.656;7.568;2023-12-22T02:52:55;4.00;99.90
5617;DHT22;2830;50.656;7.568;2023-12-22T02:55:22;4.10;99.90
5617;DHT22;2830;50.656;7.568;2023-12-22T02:57:49;4.00;99.90
5617;DHT22;2830;50.656;7.568;2023-12-22T03:00:16;4.00;99.90
5617;DHT22;2830;50.656;7.568;2023-12-22T03:02:43;4.10;99.90
5617;DHT22;2830;50.656;7.568;2023-12-22T03:05:10;4.10;99.90
5617;DHT22;2830;50.656;7.568;2023-12-22T03:07:37;4.20;99.90
5617;DHT22;2830;50.656;7.568;2023-12-22T03:10:04;4.10;99.90
5617;DHT22;2830;50.656;7.568;2023-12-22T03:12:31;4.10;99.90
5617;DHT22;2830;50.656;7.568;2023-12-22T03:14:58;4.10;99.90
5617;DHT22;2830;50.656;7.568;2023-12-22T03:17:24;4.20;99.90
5617;DHT22;2830;50.656;7.568;2023-12-22T03:19:51;4.20;99.90
5617;DHT22;2830;50.656;7.568;2023-12-22T03:22:18;4.20;99.90
5617;DHT22;2830;50.656;7.568;2023-12-22T03:24:45;4.30;99.90
5617;DHT22;2830;50.656;7.568;2023-12-22T03:27:12;4.30;99.90
5617;DHT22;2830;50.656;7.568;2023-12-22T03:29:43;4.10;99.90
5617;DHT22;2830;50.656;7.568;2023-12-22T03:32:10;3.90;99.90
5617;DHT22;2830;50.656;7.568;2023-12-22T03:34:37;3.70;99.90
5617;DHT22;2830;50.656;7.568;2023-12-22T03:37:04;3.70;99.90
5617;DHT22;2830;50.656;7.568;2023-12-22T03:39:31;3.60;99.90
5617;DHT22;2830;50.656;7.568;2023-12-22T03:41:58;3.60;99.90
5617;DHT22;2830;50.656;7.568;2023-12-22T03:44:26;3.60;99.90
5617;DHT22;2830;50.656;7.568;2023-12-22T03:46:53;3.70;99.90
5617;DHT22;2830;50.656;7.568;2023-12-22T03:49:20;3.80;99.90
5617;DHT22;2830;50.656;7.568;2023-12-22T03:51:47;3.90;99.90
5617;DHT22;2830;50.656;7.568;2023-12-22T03:54:14;3.90;99.90
5617;DHT22;2830;50.656;7.568;2023-12-22T03:56:43;4.00;99.90
5617;DHT22;2830;50.656;7.568;2023-12-22T03:59:11;4.00;99.90
5617;DHT22;2830;50.656;7.568;2023-12-22T04:01:38;4.10;99.90
5617;DHT22;2830;50.656;7.568;2023-12-22T04:04:05;4.10;99.90
5617;DHT22;2830;50.656;7.568;2023-12-22T04:06:32;4.10;99.90
5617;DHT22;2830;50.656;7.568;2023-12-22T04:08:59;4.10;99.90
5617;DHT22;2830;50.656;7.568;2023-12-22T04:11:26;4.30;99.90
5617;DHT22;2830;50.656;7.568;2023-12-22T04:13:52;4.50;99.90
5617;DHT22;2830;50.656;7.568;2023-12-22T04:16:19;4.50;99.90
5617;DHT22;2830;50.656;7.568;2023-12-22T04:18:46;4.60;99.90
5617;DHT22;2830;50.656;7.568;2023-12-22T04:21:14;4.60;99.90
5617;DHT22;2830;50.656;7.568;2023-12-22T04:23:40;4.60;99.90
5617;DHT22;2830;50.656;7.568;2023-12-22T04:26:07;4.70;99.90
5617;DHT22;2830;50.656;7.568;2023-12-22T04:28:34;4.70;99.90
5617;DHT22;2830;50.656;7.568;2023-12-22T04:31:01;4.80;99.90
5617;DHT22;2830;50.656;7.568;2023-12-22T04:33:28;4.80;99.90
5617;DHT22;2830;50.656;7.568;2023-12-22T04:35:55;4.90;99.90
5617;DHT22;2830;50.656;7.568;2023-12-22T04:38:22;4.90;99.90
5617;DHT22;2830;50.656;7.568;2023-12-22T04:40:49;4.90;99.90
5617;DHT22;2830;50.656;7.568;2023-12-22T04:43:15;4.90;99.90
5617;DHT22;2830;50.656;7.568;2023-12-22T04:45:42;4.90;99.90
5617;DHT22;2830;50.656;7.568;2023-12-22T04:48:09;4.90;99.90
5617;DHT22;2830;50.656;7.568;2023-12-22T04:50:36;4.90;99.90
5617;DHT22;2830;50.656;7.568;2023-12-22T04:53:03;5.00;99.90
5617;DHT22;2830;50.656;7.568;2023-12-22T04:55:30;5.00;99.90
5617;DHT22;2830;50.656;7.568;2023-12-22T04:57:57;5.00;99.90
5617;DHT22;2830;50.656;7.568;2023-12-22T05:00:25;5.00;99.90
5617;DHT22;2830;50.656;7.568;2023-12-22T05:02:52;5.00;99.90
5617;DHT22;2830;50.656;7.568;2023-12-22T05:05:19;5.10;99.90
5617;DHT22;2830;50.656;7.568;2023-12-22T05:07:45;5.10;99.90
5617;DHT22;2830;50.656;7.568;2023-12-22T05:10:13;5.10;99.90
5617;DHT22;2830;50.656;7.568;2023-12-22T05:12:39;5.10;99.90
5617;DHT22;2830;50.656;7.568;2023-12-22T05:15:07;5.00;99.90
5617;DHT22;2830;50.656;7.568;2023-12-22T05:17:34;5.10;99.90
5617;DHT22;2830;50.656;7.568;2023-12-22T05:20:00;5.20;99.90
5617;DHT22;2830;50.656;7.568;2023-12-22T05:22:28;5.10;99.90
5617;DHT22;2830;50.656;7.568;2023-12-22T05:25:00;5.20;99.90
5617;DHT22;2830;50.656;7.568;2023-12-22T05:27:27;5.20;99.90
5617;DHT22;2830;50.656;7.568;2023-12-22T05:29:54;5.30;99.90
5617;DHT22;2830;50.656;7.568;2023-12-22T05:32:21;5.40;99.90
5617;DHT22;2830;50.656;7.568;2023-12-22T05:34:48;5.40;99.90
5617;DHT22;2830;50.656;7.568;2023-12-22T05:37:15;5.50;99.90
5617;DHT22;2830;50.656;7.568;2023-12-22T05:39:42;5.50;99.90
5617;DHT22;2830;50.656;7.568;2023-12-22T05:42:10;5.60;99.90
5617;DHT22;2830;50.656;7.568;2023-12-22T05:44:37;5.60;99.90
5617;DHT22;2830;50.656;7.568;2023-12-22T05:47:05;5.70;99.90
5617;DHT22;2830;50.656;7.568;2023-12-22T05:49:32;5.70;99.90
5617;DHT22;2830;50.656;7.568;2023-12-22T05:51:59;5.70;99.90
5617;DHT22;2830;50.656;7.568;2023-12-22T05:54:26;5.70;99.90
5617;DHT22;2830;50.656;7.568;2023-12-22T05:56:53;5.80;99.90
5617;DHT22;2830;50.656;7.568;2023-12-22T05:59:24;5.80;99.90
5617;DHT22;2830;50.656;7.568;2023-12-22T06:01:54;5.80;99.90
5617;DHT22;2830;50.656;7.568;2023-12-22T06:04:21;5.90;99.90
5617;DHT22;2830;50.656;7.568;2023-12-22T06:06:48;5.90;99.90
5617;DHT22;2830;50.656;7.568;2023-12-22T06:09:15;5.90;99.90
5617;DHT22;2830;50.656;7.568;2023-12-22T06:11:42;6.00;99.90
5617;DHT22;2830;50.656;7.568;2023-12-22T06:14:09;6.00;99.90
5617;DHT22;2830;50.656;7.568;2023-12-22T06:16:36;6.10;99.90
5617;DHT22;2830;50.656;7.568;2023-12-22T06:19:02;6.20;99.90
5617;DHT22;2830;50.656;7.568;2023-12-22T06:21:29;6.20;99.90
5617;DHT22;2830;50.656;7.568;2023-12-22T06:23:56;6.20;99.90
5617;DHT22;2830;50.656;7.568;2023-12-22T06:26:23;6.20;99.90
5617;DHT22;2830;50.656;7.568;2023-12-22T06:28:50;6.20;99.90
5617;DHT22;2830;50.656;7.568;2023-12-22T06:31:20;6.10;99.90
5617;DHT22;2830;50.656;7.568;2023-12-22T06:33:49;6.20;99.90
5617;DHT22;2830;50.656;7.568;2023-12-22T06:36:24;6.30;99.90
5617;DHT22;2830;50.656;7.568;2023-12-22T06:38:53;6.30;99.90
5617;DHT22;2830;50.656;7.568;2023-12-22T06:41:26;6.30;99.90
5617;DHT22;2830;50.656;7.568;2023-12-22T06:43:55;6.30;99.90
5617;DHT22;2830;50.656;7.568;2023-12-22T06:46:24;6.30;99.90
5617;DHT22;2830;50.656;7.568;2023-12-22T06:48:55;6.20;99.90
5617;DHT22;2830;50.656;7.568;2023-12-22T06:51:30;6.20;99.90
5617;DHT22;2830;50.656;7.568;2023-12-22T06:53:57;6.20;99.90
5617;DHT22;2830;50.656;7.568;2023-12-22T06:56:30;6.30;99.90
5617;DHT22;2830;50.656;7.568;2023-12-22T06:58:57;6.30;99.90
5617;DHT22;2830;50.656;7.568;2023-12-22T07:01:30;6.30;99.90
5617;DHT22;2830;50.656;7.568;2023-12-22T07:03:58;6.30;99.90
5617;DHT22;2830;50.656;7.568;2023-12-22T07:06:30;6.30;99.90
5617;DHT22;2830;50.656;7.568;2023-12-22T07:11:24;6.40;99.90
5617;DHT22;2830;50.656;7.568;2023-12-22T07:14:02;6.40;99.90
5617;DHT22;2830;50.656;7.568;2023-12-22T07:16:29;6.40;99.90
5617;DHT22;2830;50.656;7.568;2023-12-22T07:18:56;6.50;99.90
5617;DHT22;2830;50.656;7.568;2023-12-22T07:21:23;6.50;99.90
5617;DHT22;2830;50.656;7.568;2023-12-22T07:23:50;6.50;99.90
5617;DHT22;2830;50.656;7.568;2023-12-22T07:26:17;6.50;99.90
5617;DHT22;2830;50.656;7.568;2023-12-22T07:28:45;6.50;99.90
5617;DHT22;2830;50.656;7.568;2023-12-22T07:31:14;6.50;99.90
5617;DHT22;2830;50.656;7.568;2023-12-22T07:33:41;6.40;99.90
5617;DHT22;2830;50.656;7.568;2023-12-22T07:36:08;6.50;99.90
5617;DHT22;2830;50.656;7.568;2023-12-22T07:38:36;6.30;99.90
5617;DHT22;2830;50.656;7.568;2023-12-22T07:41:03;5.90;99.90
5617;DHT22;2830;50.656;7.568;2023-12-22T07:43:30;5.50;99.90
5617;DHT22;2830;50.656;7.568;2023-12-22T07:45:57;5.20;99.90
5617;DHT22;2830;50.656;7.568;2023-12-22T07:48:24;5.30;99.90
5617;DHT22;2830;50.656;7.568;2023-12-22T07:50:51;5.30;99.90
5617;DHT22;2830;50.656;7.568;2023-12-22T07:53:18;5.20;99.90
5617;DHT22;2830;50.656;7.568;2023-12-22T07:55:46;5.10;99.90
5617;DHT22;2830;50.656;7.568;2023-12-22T07:58:13;5.10;99.90
5617;DHT22;2830;50.656;7.568;2023-12-22T08:00:40;5.10;99.90
5617;DHT22;2830;50.656;7.568;2023-12-22T08:03:07;5.10;99.90
5617;DHT22;2830;50.656;7.568;2023-12-22T08:05:34;5.20;99.90
5617;DHT22;2830;50.656;7.568;2023-12-22T08:08:01;5.30;99.90
5617;DHT22;2830;50.656;7.568;2023-12-22T08:10:28;5.30;99.90
5617;DHT22;2830;50.656;7.568;2023-12-22T08:12:54;5.30;99.90
5617;DHT22;2830;50.656;7.568;2023-12-22T08:15:21;5.40;99.90
5617;DHT22;2830;50.656;7.568;2023-12-22T08:18:01;5.50;99.90
5617;DHT22;2830;50.656;7.568;2023-12-22T08:20:28;5.50;99.90
5617;DHT22;2830;50.656;7.568;2023-12-22T08:23:02;5.60;99.90
5617;DHT22;2830;50.656;7.568;2023-12-22T08:25:35;5.60;99.90
5617;DHT22;2830;50.656;7.568;2023-12-22T08:28:02;5.60;99.90
5617;DHT22;2830;50.656;7.568;2023-12-22T08:30:30;5.60;99.90
5617;DHT22;2830;50.656;7.568;2023-12-22T08:32:56;5.60;99.90
5617;DHT22;2830;50.656;7.568;2023-12-22T08:35:23;5.60;99.90
5617;DHT22;2830;50.656;7.568;2023-12-22T08:37:51;5.70;99.90
5617;DHT22;2830;50.656;7.568;2023-12-22T08:40:18;5.70;99.90
5617;DHT22;2830;50.656;7.568;2023-12-22T08:42:52;5.70;99.90
5617;DHT22;2830;50.656;7.568;2023-12-22T08:45:27;5.80;99.90
5617;DHT22;2830;50.656;7.568;2023-12-22T08:47:57;5.80;99.90
5617;DHT22;2830;50.656;7.568;2023-12-22T08:50:25;5.90;99.90
5617;DHT22;2830;50.656;7.568;2023-12-22T08:52:52;5.80;99.90
5617;DHT22;2830;50.656;7.568;2023-12-22T08:55:19;5.90;99.90
5617;DHT22;2830;50.656;7.568;2023-12-22T08:57:46;5.90;99.90
5617;DHT22;2830;50.656;7.568;2023-12-22T09:00:25;5.90;99.90
5617;DHT22;2830;50.656;7.568;2023-12-22T09:02:52;6.00;99.90
5617;DHT22;2830;50.656;7.568;2023-12-22T09:05:20;6.10;99.90
5617;DHT22;2830;50.656;7.568;2023-12-22T09:07:48;6.10;99.90
5617;DHT22;2830;50.656;7.568;2023-12-22T09:10:16;6.30;99.90
5617;DHT22;2830;50.656;7.568;2023-12-22T09:12:43;6.30;99.90
5617;DHT22;2830;50.656;7.568;2023-12-22T09:15:10;6.40;99.90
5617;DHT22;2830;50.656;7.568;2023-12-22T09:17:36;6.40;99.90
5617;DHT22;2830;50.656;7.568;2023-12-22T09:20:04;6.50;99.90
5617;DHT22;2830;50.656;7.568;2023-12-22T09:22:31;6.50;99.90
5617;DHT22;2830;50.656;7.568;2023-12-22T09:24:58;6.60;99.90
5617;DHT22;2830;50.656;7.568;2023-12-22T09:27:24;6.60;99.90
5617;DHT22;2830;50.656;7.568;2023-12-22T09:29:57;6.60;99.90
5617;DHT22;2830;50.656;7.568;2023-12-22T09:32:24;6.70;99.90
5617;DHT22;2830;50.656;7.568;2023-12-22T09:34:51;6.70;99.90
5617;DHT22;2830;50.656;7.568;2023-12-22T09:37:18;6.70;99.90
5617;DHT22;2830;50.656;7.568;2023-12-22T09:39:44;6.70;99.90
5617;DHT22;2830;50.656;7.568;2023-12-22T09:42:11;6.70;99.90
5617;DHT22;2830;50.656;7.568;2023-12-22T09:44:41;6.70;99.90
5617;DHT22;2830;50.656;7.568;2023-12-22T09:47:09;6.70;99.90
5617;DHT22;2830;50.656;7.568;2023-12-22T09:49:39;6.70;99.90
5617;DHT22;2830;50.656;7.568;2023-12-22T09:52:07;6.80;99.90
5617;DHT22;2830;50.656;7.568;2023-12-22T09:54:36;6.80;99.90
5617;DHT22;2830;50.656;7.568;2023-12-22T09:57:05;6.80;99.90
5617;DHT22;2830;50.656;7.568;2023-12-22T09:59:49;6.90;99.90
5617;DHT22;2830;50.656;7.568;2023-12-22T10:02:17;6.90;99.90
5617;DHT22;2830;50.656;7.568;2023-12-22T10:04:45;6.90;99.90
5617;DHT22;2830;50.656;7.568;2023-12-22T10:07:13;6.90;99.90
5617;DHT22;2830;50.656;7.568;2023-12-22T10:09:42;7.10;99.90
5617;DHT22;2830;50.656;7.568;2023-12-22T10:12:11;7.10;99.90
5617;DHT22;2830;50.656;7.568;2023-12-22T10:14:39;7.10;99.90
5617;DHT22;2830;50.656;7.568;2023-12-22T10:17:07;7.20;99.90
5617;DHT22;2830;50.656;7.568;2023-12-22T10:19:34;7.20;99.90
5617;DHT22;2830;50.656;7.568;2023-12-22T10:22:01;7.30;99.90
5617;DHT22;2830;50.656;7.568;2023-12-22T10:24:44;7.30;99.90
5617;DHT22;2830;50.656;7.568;2023-12-22T10:27:15;7.20;99.90
5617;DHT22;2830;50.656;7.568;2023-12-22T10:29:57;7.40;99.90
5617;DHT22;2830;50.656;7.568;2023-12-22T10:32:24;7.40;99.90
5617;DHT22;2830;50.656;7.568;2023-12-22T10:34:52;7.50;99.90
5617;DHT22;2830;50.656;7.568;2023-12-22T10:37:20;7.50;99.90
5617;DHT22;2830;50.656;7.568;2023-12-22T10:39:52;7.50;99.90
5617;DHT22;2830;50.656;7.568;2023-12-22T10:42:19;7.60;99.90
5617;DHT22;2830;50.656;7.568;2023-12-22T10:44:47;7.60;99.90
5617;DHT22;2830;50.656;7.568;2023-12-22T10:47:17;7.60;99.90
5617;DHT22;2830;50.656;7.568;2023-12-22T10:49:46;7.60;99.90
5617;DHT22;2830;50.656;7.568;2023-12-22T10:52:17;7.70;99.90
5617;DHT22;2830;50.656;7.568;2023-12-22T10:54:48;7.60;99.90
5617;DHT22;2830;50.656;7.568;2023-12-22T10:57:19;7.50;99.90
5617;DHT22;2830;50.656;7.568;2023-12-22T10:59:48;7.50;99.90
5617;DHT22;2830;50.656;7.568;2023-12-22T11:02:27;7.40;99.90
5617;DHT22;2830;50.656;7.568;2023-12-22T11:05:01;7.30;99.90
5617;DHT22;2830;50.656;7.568;2023-12-22T11:07:29;7.30;99.90
5617;DHT22;2830;50.656;7.568;2023-12-22T11:10:02;7.30;99.90
5617;DHT22;2830;50.656;7.568;2023-12-22T11:12:35;7.40;99.90
5617;DHT22;2830;50.656;7.568;2023-12-22T11:15:04;7.40;99.90
5617;DHT22;2830;50.656;7.568;2023-12-22T11:17:34;7.40;99.90
5617;DHT22;2830;50.656;7.568;2023-12-22T11:20:03;7.40;99.90
5617;DHT22;2830;50.656;7.568;2023-12-22T11:22:31;7.40;99.90
5617;DHT22;2830;50.656;7.568;2023-12-22T11:25:00;7.40;99.90
5617;DHT22;2830;50.656;7.568;2023-12-22T11:27:29;7.40;99.90
5617;DHT22;2830;50.656;7.568;2023-12-22T11:29:57;7.40;99.90
5617;DHT22;2830;50.656;7.568;2023-12-22T11:32:25;7.50;99.90
5617;DHT22;2830;50.656;7.568;2023-12-22T11:34:54;7.50;99.90
5617;DHT22;2830;50.656;7.568;2023-12-22T11:37:23;7.40;99.90
5617;DHT22;2830;50.656;7.568;2023-12-22T11:39:50;7.40;99.90
5617;DHT22;2830;50.656;7.568;2023-12-22T11:42:23;7.40;99.90
5617;DHT22;2830;50.656;7.568;2023-12-22T11:44:53;7.40;99.90
5617;DHT22;2830;50.656;7.568;2023-12-22T11:47:23;7.50;99.90
5617;DHT22;2830;50.656;7.568;2023-12-22T11:49:50;7.60;99.90
5617;DHT22;2830;50.656;7.568;2023-12-22T11:52:18;7.70;99.90
5617;DHT22;2830;50.656;7.568;2023-12-22T11:54:53;7.70;99.90
5617;DHT22;2830;50.656;7.568;2023-12-22T11:57:41;7.80;99.90
5617;DHT22;2830;50.656;7.568;2023-12-22T12:00:56;7.80;99.90
5617;DHT22;2830;50.656;7.568;2023-12-22T12:02:58;7.90;99.90
5617;DHT22;2830;50.656;7.568;2023-12-22T12:05:25;7.90;99.90
5617;DHT22;2830;50.656;7.568;2023-12-22T12:07:52;7.90;99.90
5617;DHT22;2830;50.656;7.568;2023-12-22T12:13:06;7.90;99.90
5617;DHT22;2830;50.656;7.568;2023-12-22T12:15:34;7.90;99.90
5617;DHT22;2830;50.656;7.568;2023-12-22T12:18:02;7.90;99.90
5617;DHT22;2830;50.656;7.568;2023-12-22T12:20:30;7.90;99.90
5617;DHT22;2830;50.656;7.568;2023-12-22T12:22:57;7.90;99.90
5617;DHT22;2830;50.656;7.568;2023-12-22T12:25:28;7.80;99.90
5617;DHT22;2830;50.656;7.568;2023-12-22T12:28:05;7.80;99.90
5617;DHT22;2830;50.656;7.568;2023-12-22T12:30:33;7.80;99.90
5617;DHT22;2830;50.656;7.568;2023-12-22T12:33:12;7.80;99.90
5617;DHT22;2830;50.656;7.568;2023-12-22T12:35:41;7.80;99.90
5617;DHT22;2830;50.656;7.568;2023-12-22T12:38:17;7.80;99.90
5617;DHT22;2830;50.656;7.568;2023-12-22T12:40:50;7.70;99.90
5617;DHT22;2830;50.656;7.568;2023-12-22T12:43:18;7.80;99.90
5617;DHT22;2830;50.656;7.568;2023-12-22T12:45:45;7.90;99.90
5617;DHT22;2830;50.656;7.568;2023-12-22T12:48:16;7.90;99.90
5617;DHT22;2830;50.656;7.568;2023-12-22T12:50:45;8.00;99.90
5617;DHT22;2830;50.656;7.568;2023-12-22T12:53:12;8.00;99.90
5617;DHT22;2830;50.656;7.568;2023-12-22T12:55:39;8.00;99.90
5617;DHT22;2830;50.656;7.568;2023-12-22T12:58:06;8.10;99.90
5617;DHT22;2830;50.656;7.568;2023-12-22T13:00:33;8.10;99.90
5617;DHT22;2830;50.656;7.568;2023-12-22T13:03:04;8.10;99.90
5617;DHT22;2830;50.656;7.568;2023-12-22T13:05:33;8.10;99.90
5617;DHT22;2830;50.656;7.568;2023-12-22T13:08:10;8.10;99.90
5617;DHT22;2830;50.656;7.568;2023-12-22T13:10:39;8.10;99.90
5617;DHT22;2830;50.656;7.568;2023-12-22T13:13:08;8.20;99.90
5617;DHT22;2830;50.656;7.568;2023-12-22T13:15:35;8.20;99.90
5617;DHT22;2830;50.656;7.568;2023-12-22T13:18:02;8.30;99.90
5617;DHT22;2830;50.656;7.568;2023-12-22T13:20:29;8.30;99.90
5617;DHT22;2830;50.656;7.568;2023-12-22T13:22:56;8.30;99.90
5617;DHT22;2830;50.656;7.568;2023-12-22T13:25:23;8.40;99.90
5617;DHT22;2830;50.656;7.568;2023-12-22T13:27:52;8.40;99.90
5617;DHT22;2830;50.656;7.568;2023-12-22T13:30:35;8.40;99.90
5617;DHT22;2830;50.656;7.568;2023-12-22T13:33:04;8.30;99.90
5617;DHT22;2830;50.656;7.568;2023-12-22T13:35:32;8.40;99.90
5617;DHT22;2830;50.656;7.568;2023-12-22T13:38:07;8.40;99.90
5617;DHT22;2830;50.656;7.568;2023-12-22T13:40:34;8.30;99.90
5617;DHT22;2830;50.656;7.568;2023-12-22T13:43:02;8.30;99.90
5617;DHT22;2830;50.656;7.568;2023-12-22T13:45:30;8.20;99.90
5617;DHT22;2830;50.656;7.568;2023-12-22T13:48:01;8.20;99.90
5617;DHT22;2830;50.656;7.568;2023-12-22T13:50:28;8.10;99.90
5617;DHT22;2830;50.656;7.568;2023-12-22T13:52:55;8.10;99.90
5617;DHT22;2830;50.656;7.568;2023-12-22T13:55:22;8.10;99.90
5617;DHT22;2830;50.656;7.568;2023-12-22T13:57:59;8.10;99.90
5617;DHT22;2830;50.656;7.568;2023-12-22T14:00:30;8.00;99.90
5617;DHT22;2830;50.656;7.568;2023-12-22T14:03:00;8.00;99.90
5617;DHT22;2830;50.656;7.568;2023-12-22T14:05:27;8.00;99.90
5617;DHT22;2830;50.656;7.568;2023-12-22T14:08:01;8.00;99.90
5617;DHT22;2830;50.656;7.568;2023-12-22T14:10:28;8.00;99.90
5617;DHT22;2830;50.656;7.568;2023-12-22T14:12:55;8.00;99.90
5617;DHT22;2830;50.656;7.568;2023-12-22T14:15:22;8.10;99.90
5617;DHT22;2830;50.656;7.568;2023-12-22T14:17:56;8.10;99.90
5617;DHT22;2830;50.656;7.568;2023-12-22T14:20:23;8.10;99.90
5617;DHT22;2830;50.656;7.568;2023-12-22T14:22:51;8.20;99.90
5617;DHT22;2830;50.656;7.568;2023-12-22T14:25:19;8.20;99.90
5617;DHT22;2830;50.656;7.568;2023-12-22T14:27:46;8.30;99.90
5617;DHT22;2830;50.656;7.568;2023-12-22T14:30:13;8.30;99.90
5617;DHT22;2830;50.656;7.568;2023-12-22T14:32:40;8.30;99.90
5617;DHT22;2830;50.656;7.568;2023-12-22T14:35:08;8.30;99.90
5617;DHT22;2830;50.656;7.568;2023-12-22T14:37:35;8.30;99.90
5617;DHT22;2830;50.656;7.568;2023-12-22T14:40:02;8.30;99.90
5617;DHT22;2830;50.656;7.568;2023-12-22T14:42:29;8.20;99.90
5617;DHT22;2830;50.656;7.568;2023-12-22T14:44:56;8.20;99.90
5617;DHT22;2830;50.656;7.568;2023-12-22T14:47:23;8.20;99.90
5617;DHT22;2830;50.656;7.568;2023-12-22T14:49:50;8.20;99.90
5617;DHT22;2830;50.656;7.568;2023-12-22T14:52:17;8.20;99.90
5617;DHT22;2830;50.656;7.568;2023-12-22T14:54:44;8.10;99.90
5617;DHT22;2830;50.656;7.568;2023-12-22T14:57:11;8.10;99.90
5617;DHT22;2830;50.656;7.568;2023-12-22T14:59:38;8.10;99.90
5617;DHT22;2830;50.656;7.568;2023-12-22T15:02:05;8.10;99.90
5617;DHT22;2830;50.656;7.568;2023-12-22T15:04:32;8.10;99.90
5617;DHT22;2830;50.656;7.568;2023-12-22T15:07:00;8.20;99.90
5617;DHT22;2830;50.656;7.568;2023-12-22T15:09:28;8.20;99.90
5617;DHT22;2830;50.656;7.568;2023-12-22T15:11:55;8.10;99.90
5617;DHT22;2830;50.656;7.568;2023-12-22T15:14:22;8.20;99.90
5617;DHT22;2830;50.656;7.568;2023-12-22T15:16:50;8.20;99.90
5617;DHT22;2830;50.656;7.568;2023-12-22T15:19:20;8.20;99.90
5617;DHT22;2830;50.656;7.568;2023-12-22T15:21:47;8.20;99.90
5617;DHT22;2830;50.656;7.568;2023-12-22T15:24:14;8.20;99.90
5617;DHT22;2830;50.656;7.568;2023-12-22T15:26:41;8.20;99.90
5617;DHT22;2830;50.656;7.568;2023-12-22T15:29:09;8.30;99.90
5617;DHT22;2830;50.656;7.568;2023-12-22T15:31:36;8.30;99.90
5617;DHT22;2830;50.656;7.568;2023-12-22T15:34:04;8.30;99.90
5617;DHT22;2830;50.656;7.568;2023-12-22T15:36:33;8.30;99.90
5617;DHT22;2830;50.656;7.568;2023-12-22T15:39:01;8.30;99.90
5617;DHT22;2830;50.656;7.568;2023-12-22T15:41:29;8.30;99.90
5617;DHT22;2830;50.656;7.568;2023-12-22T15:43:56;8.30;99.90
5617;DHT22;2830;50.656;7.568;2023-12-22T15:46:23;8.30;99.90
5617;DHT22;2830;50.656;7.568;2023-12-22T15:48:50;8.20;99.90
5617;DHT22;2830;50.656;7.568;2023-12-22T15:51:17;8.30;99.90
5617;DHT22;2830;50.656;7.568;2023-12-22T15:53:46;8.30;99.90
5617;DHT22;2830;50.656;7.568;2023-12-22T15:56:14;8.20;99.90
5617;DHT22;2830;50.656;7.568;2023-12-22T15:58:43;8.30;99.90
5617;DHT22;2830;50.656;7.568;2023-12-22T16:01:12;8.30;99.90
5617;DHT22;2830;50.656;7.568;2023-12-22T16:03:43;8.30;99.90
5617;DHT22;2830;50.656;7.568;2023-12-22T16:06:19;8.30;99.90
5617;DHT22;2830;50.656;7.568;2023-12-22T16:08:46;8.30;99.90
5617;DHT22;2830;50.656;7.568;2023-12-22T16:11:13;8.30;99.90
5617;DHT22;2830;50.656;7.568;2023-12-22T16:13:40;8.20;99.90
5617;DHT22;2830;50.656;7.568;2023-12-22T16:16:17;8.20;99.90
5617;DHT22;2830;50.656;7.568;2023-12-22T16:18:44;8.20;99.90
5617;DHT22;2830;50.656;7.568;2023-12-22T16:21:11;8.20;99.90
5617;DHT22;2830;50.656;7.568;2023-12-22T16:23:38;8.30;99.90
5617;DHT22;2830;50.656;7.568;2023-12-22T16:26:05;8.30;99.90
5617;DHT22;2830;50.656;7.568;2023-12-22T16:28:34;8.30;99.90